createdAt,value
2016-10-30T00:00:45.870Z,99.99
2016-10-30T00:01:45.889Z,99.99
2016-10-30T00:02:46.131Z,99.99
2016-10-30T00:03:45.855Z,99.99
2016-10-30T00:04:45.833Z,99.99
2016-10-30T00:05:45.853Z,99.99
2016-10-30T00:06:45.876Z,99.99
2016-10-30T00:07:45.859Z,99.99
2016-10-30T00:08:46.147Z,99.99
2016-10-30T00:09:45.983Z,99.99
2016-10-30T00:10:46.137Z,99.99
2016-10-30T00:11:45.967Z,99.99
2016-10-30T00:12:45.917Z,99.99
2016-10-30T00:13:45.887Z,99.99
2016-10-30T00:14:45.866Z,99.99
2016-10-30T00:15:45.872Z,99.99
2016-10-30T00:16:46.070Z,99.99
2016-10-30T00:17:46.033Z,99.99
2016-10-30T00:18:45.917Z,99.99
2016-10-30T00:19:46.169Z,99.99
2016-10-30T00:20:46.025Z,99.99
2016-10-30T00:21:46.031Z,99.99
2016-10-30T00:22:45.876Z,99.99
2016-10-30T00:23:45.935Z,99.99
2016-10-30T00:24:45.885Z,99.99
2016-10-30T00:25:45.955Z,99.99
2016-10-30T00:26:45.886Z,99.99
2016-10-30T00:27:45.948Z,99.99
2016-10-30T00:28:45.877Z,99.99
2016-10-30T00:29:46.047Z,99.99
2016-10-30T00:30:45.945Z,99.99
2016-10-30T00:31:45.900Z,99.99
2016-10-30T00:32:45.950Z,99.99
2016-10-30T00:33:45.878Z,99.99
2016-10-30T00:34:46.026Z,99.99
2016-10-30T00:35:45.882Z,99.99
2016-10-30T00:36:46.045Z,99.99
2016-10-30T00:37:45.914Z,99.99
2016-10-30T00:38:45.878Z,99.99
2016-10-30T00:39:46.038Z,99.99
2016-10-30T00:40:45.879Z,99.99
2016-10-30T00:41:45.954Z,99.99
2016-10-30T00:42:45.894Z,99.99
2016-10-30T00:43:45.910Z,99.99
2016-10-30T00:44:45.945Z,99.99
2016-10-30T00:45:45.907Z,99.99
2016-10-30T00:46:45.933Z,99.99
2016-10-30T00:47:45.891Z,99.99
2016-10-30T00:48:46.042Z,99.99
2016-10-30T00:49:45.900Z,99.99
2016-10-30T00:50:45.982Z,99.99
2016-10-30T00:51:45.930Z,99.99
2016-10-30T00:52:45.894Z,99.99
2016-10-30T00:53:46.035Z,99.99
2016-10-30T00:54:45.884Z,99.99
2016-10-30T00:55:46.108Z,99.99
2016-10-30T00:56:45.922Z,99.99
2016-10-30T00:57:46.154Z,99.99
2016-10-30T00:58:45.910Z,99.99
2016-10-30T00:59:45.927Z,99.99
2016-10-30T01:00:45.901Z,99.99
2016-10-30T01:01:45.942Z,99.99
2016-10-30T01:02:45.930Z,99.99
2016-10-30T01:03:46.035Z,99.99
2016-10-30T01:04:45.903Z,99.99
2016-10-30T01:05:45.901Z,99.99
2016-10-30T01:06:45.914Z,99.99
2016-10-30T01:07:46.011Z,99.99
2016-10-30T01:08:45.914Z,99.99
2016-10-30T01:09:45.916Z,99.99
2016-10-30T01:10:45.913Z,99.99
2016-10-30T01:11:45.937Z,99.99
2016-10-30T01:12:45.906Z,99.99
2016-10-30T01:13:45.903Z,99.99
2016-10-30T01:14:45.910Z,99.99
2016-10-30T01:15:45.910Z,99.99
2016-10-30T01:16:45.926Z,99.99
2016-10-30T01:17:45.910Z,99.99
2016-10-30T01:18:45.904Z,99.99
2016-10-30T01:19:45.913Z,99.99
2016-10-30T01:20:45.910Z,99.99
2016-10-30T01:21:45.927Z,99.99
2016-10-30T01:22:45.914Z,99.99
2016-10-30T01:23:45.914Z,99.99
2016-10-30T01:24:45.918Z,99.99
2016-10-30T01:25:46.022Z,99.99
2016-10-30T01:26:45.923Z,99.99
2016-10-30T01:27:45.932Z,99.99
2016-10-30T01:28:45.940Z,99.99
2016-10-30T01:29:45.924Z,99.99
2016-10-30T01:30:45.929Z,99.99
2016-10-30T01:31:45.952Z,99.99
2016-10-30T01:32:45.919Z,99.99
2016-10-30T01:33:46.138Z,99.99
2016-10-30T01:34:45.919Z,99.99
2016-10-30T01:35:45.926Z,99.99
2016-10-30T01:36:45.945Z,99.99
2016-10-30T01:37:45.913Z,99.99
2016-10-30T01:38:45.917Z,99.99
2016-10-30T01:39:45.937Z,99.99
2016-10-30T01:40:46.103Z,99.99
2016-10-30T01:41:45.950Z,99.99
2016-10-30T01:42:45.932Z,99.99
2016-10-30T01:43:46.054Z,99.99
2016-10-30T01:44:45.932Z,99.99
2016-10-30T01:45:45.933Z,99.99
2016-10-30T01:46:45.945Z,99.99
2016-10-30T01:47:45.939Z,99.99
2016-10-30T01:48:45.946Z,99.99
2016-10-30T01:49:45.974Z,99.99
2016-10-30T01:50:46.326Z,99.99
2016-10-30T01:51:45.954Z,99.99
2016-10-30T01:52:45.924Z,99.99
2016-10-30T01:53:46.092Z,99.99
2016-10-30T01:54:45.937Z,99.99
2016-10-30T01:55:45.945Z,99.99
2016-10-30T01:56:45.967Z,99.99
2016-10-30T01:57:45.950Z,99.99
2016-10-30T01:58:45.935Z,99.99
2016-10-30T01:59:45.936Z,99.99
2016-10-30T02:00:45.964Z,99.99
2016-10-30T02:01:45.967Z,99.99
2016-10-30T02:02:45.962Z,99.99
2016-10-30T02:03:45.962Z,99.99
2016-10-30T02:04:45.969Z,99.99
2016-10-30T02:05:45.954Z,99.99
2016-10-30T02:06:45.972Z,99.99
2016-10-30T02:07:45.955Z,99.99
2016-10-30T02:08:45.945Z,99.99
2016-10-30T02:09:45.954Z,99.99
2016-10-30T02:10:45.968Z,99.99
2016-10-30T02:11:46.017Z,99.99
2016-10-30T02:12:45.994Z,99.99
2016-10-30T02:13:46.057Z,99.99
2016-10-30T02:14:45.980Z,99.99
2016-10-30T02:15:45.971Z,99.99
2016-10-30T02:16:45.990Z,99.99
2016-10-30T02:17:46.115Z,99.99
2016-10-30T02:18:45.977Z,99.99
2016-10-30T02:19:46.045Z,99.99
2016-10-30T02:20:46.118Z,99.99
2016-10-30T02:21:45.990Z,99.99
2016-10-30T02:22:45.977Z,99.99
2016-10-30T02:23:45.971Z,99.99
2016-10-30T02:24:46.007Z,99.99
2016-10-30T02:25:45.981Z,99.99
2016-10-30T02:26:45.990Z,99.99
2016-10-30T02:27:45.984Z,99.99
2016-10-30T02:28:45.979Z,99.99
2016-10-30T02:29:45.966Z,99.99
2016-10-30T02:30:46.301Z,99.99
2016-10-30T02:31:45.964Z,99.99
2016-10-30T02:32:46.200Z,99.99
2016-10-30T02:33:46.038Z,99.99
2016-10-30T02:34:45.964Z,99.99
2016-10-30T02:35:45.961Z,99.99
2016-10-30T02:36:46.079Z,99.99
2016-10-30T02:37:45.979Z,99.99
2016-10-30T02:38:46.055Z,99.99
2016-10-30T02:39:46.055Z,99.99
2016-10-30T02:40:46.003Z,99.99
2016-10-30T02:41:46.003Z,99.99
2016-10-30T02:42:45.994Z,99.99
2016-10-30T02:43:45.988Z,99.99
2016-10-30T02:44:45.984Z,99.99
2016-10-30T02:45:46.041Z,99.99
2016-10-30T02:46:45.997Z,99.99
2016-10-30T02:47:45.975Z,99.99
2016-10-30T02:48:46.054Z,99.99
2016-10-30T02:49:46.204Z,99.99
2016-10-30T02:50:45.990Z,99.99
2016-10-30T02:51:46.004Z,99.99
2016-10-30T02:52:45.978Z,99.99
2016-10-30T02:53:45.980Z,99.99
2016-10-30T02:54:46.047Z,99.99
2016-10-30T02:55:45.977Z,99.99
2016-10-30T02:56:45.990Z,99.99
2016-10-30T02:57:45.964Z,99.99
2016-10-30T02:58:46.025Z,99.99
2016-10-30T02:59:45.988Z,99.99
2016-10-30T03:00:46.003Z,99.99
2016-10-30T03:01:46.007Z,99.99
2016-10-30T03:02:46.034Z,99.99
2016-10-30T03:03:46.013Z,99.99
2016-10-30T03:04:45.996Z,99.99
2016-10-30T03:05:45.990Z,99.99
2016-10-30T03:06:46.016Z,99.99
2016-10-30T03:07:46.002Z,99.99
2016-10-30T03:08:46.013Z,99.99
2016-10-30T03:09:46.009Z,99.99
2016-10-30T03:10:47.135Z,99.99
2016-10-30T03:11:46.019Z,99.99
2016-10-30T03:12:46.028Z,99.99
2016-10-30T03:13:46.041Z,99.99
2016-10-30T03:14:46.313Z,99.99
2016-10-30T03:15:46.036Z,99.99
2016-10-30T03:16:46.033Z,99.99
2016-10-30T03:17:46.003Z,99.99
2016-10-30T03:18:46.022Z,99.99
2016-10-30T03:19:46.009Z,99.99
2016-10-30T03:20:46.431Z,99.99
2016-10-30T03:21:46.030Z,99.99
2016-10-30T03:22:46.017Z,99.99
2016-10-30T03:23:46.535Z,99.99
2016-10-30T03:24:46.016Z,99.99
2016-10-30T03:25:46.007Z,99.99
2016-10-30T03:26:46.028Z,99.99
2016-10-30T03:27:46.019Z,99.99
2016-10-30T03:28:46.009Z,99.99
2016-10-30T03:29:46.026Z,99.99
2016-10-30T03:30:46.009Z,99.99
2016-10-30T03:31:46.042Z,99.99
2016-10-30T03:32:46.033Z,99.99
2016-10-30T03:33:46.426Z,99.99
2016-10-30T03:34:46.038Z,99.99
2016-10-30T03:35:46.015Z,99.99
2016-10-30T03:36:46.031Z,99.99
2016-10-30T03:37:45.998Z,99.99
2016-10-30T03:38:46.137Z,99.99
2016-10-30T03:39:46.051Z,99.99
2016-10-30T03:40:46.017Z,99.99
2016-10-30T03:41:46.038Z,99.99
2016-10-30T03:42:46.024Z,99.99
2016-10-30T03:43:46.025Z,99.99
2016-10-30T03:44:46.033Z,99.99
2016-10-30T03:45:46.117Z,99.99
2016-10-30T03:46:46.046Z,99.99
2016-10-30T03:47:46.082Z,99.99
2016-10-30T03:48:46.018Z,99.99
2016-10-30T03:49:46.234Z,99.99
2016-10-30T03:50:46.028Z,99.99
2016-10-30T03:51:46.113Z,99.99
2016-10-30T03:52:46.023Z,99.99
2016-10-30T03:53:46.029Z,99.99
2016-10-30T03:54:46.025Z,99.99
2016-10-30T03:55:46.031Z,99.99
2016-10-30T03:56:46.091Z,99.99
2016-10-30T03:57:46.034Z,99.99
2016-10-30T03:58:46.226Z,99.99
2016-10-30T03:59:46.367Z,99.99
2016-10-30T04:00:46.061Z,99.99
2016-10-30T04:01:46.064Z,99.99
2016-10-30T04:02:46.045Z,99.99
2016-10-30T04:03:46.202Z,99.99
2016-10-30T04:04:46.058Z,99.99
2016-10-30T04:05:46.033Z,99.99
2016-10-30T04:06:46.172Z,99.99
2016-10-30T04:07:46.048Z,99.99
2016-10-30T04:08:46.306Z,99.99
2016-10-30T04:09:46.041Z,99.99
2016-10-30T04:10:46.053Z,99.99
2016-10-30T04:11:46.724Z,99.99
2016-10-30T04:12:46.057Z,99.99
2016-10-30T04:13:46.057Z,99.99
2016-10-30T04:14:46.052Z,99.99
2016-10-30T04:15:46.060Z,99.99
2016-10-30T04:16:46.064Z,99.99
2016-10-30T04:17:46.290Z,99.99
2016-10-30T04:18:46.058Z,99.99
2016-10-30T04:19:46.048Z,99.99
2016-10-30T04:20:46.393Z,99.99
2016-10-30T04:21:46.050Z,99.99
2016-10-30T04:22:46.060Z,99.99
2016-10-30T04:23:46.058Z,99.99
2016-10-30T04:24:46.075Z,99.99
2016-10-30T04:25:46.058Z,99.99
2016-10-30T04:26:46.051Z,99.99
2016-10-30T04:27:46.054Z,99.99
2016-10-30T04:28:46.095Z,99.99
2016-10-30T04:29:46.058Z,99.99
2016-10-30T04:30:46.074Z,99.99
2016-10-30T04:31:46.056Z,99.99
2016-10-30T04:32:46.048Z,99.99
2016-10-30T04:33:46.231Z,99.99
2016-10-30T04:34:46.032Z,99.99
2016-10-30T04:35:46.072Z,99.99
2016-10-30T04:36:46.149Z,99.99
2016-10-30T04:37:46.050Z,99.99
2016-10-30T04:38:46.058Z,99.99
2016-10-30T04:39:46.055Z,99.99
2016-10-30T04:40:46.072Z,99.99
2016-10-30T04:41:46.174Z,99.99
2016-10-30T04:42:46.058Z,99.99
2016-10-30T04:43:46.054Z,99.99
2016-10-30T04:44:46.066Z,99.99
2016-10-30T04:45:46.055Z,99.99
2016-10-30T04:46:46.191Z,99.99
2016-10-30T04:47:46.104Z,99.99
2016-10-30T04:48:46.084Z,99.99
2016-10-30T04:49:46.190Z,99.99
2016-10-30T04:50:46.082Z,99.99
2016-10-30T04:51:46.076Z,99.99
2016-10-30T04:52:46.102Z,99.99
2016-10-30T04:53:46.095Z,99.99
2016-10-30T04:54:46.210Z,99.99
2016-10-30T04:55:46.085Z,99.99
2016-10-30T04:56:46.112Z,99.99
2016-10-30T04:57:46.252Z,99.99
2016-10-30T04:58:46.194Z,99.99
2016-10-30T04:59:46.115Z,99.99
2016-10-30T05:00:46.077Z,99.99
2016-10-30T05:01:46.078Z,99.99
2016-10-30T05:02:46.277Z,99.99
2016-10-30T05:03:46.108Z,99.99
2016-10-30T05:04:46.114Z,99.99
2016-10-30T05:05:46.146Z,99.99
2016-10-30T05:06:46.091Z,99.99
2016-10-30T05:07:46.098Z,99.99
2016-10-30T05:08:46.105Z,99.99
2016-10-30T05:09:46.101Z,99.99
2016-10-30T05:10:46.105Z,99.99
2016-10-30T05:11:46.097Z,99.99
2016-10-30T05:12:46.381Z,99.99
2016-10-30T05:13:46.097Z,99.99
2016-10-30T05:14:46.119Z,99.99
2016-10-30T05:15:46.073Z,99.99
2016-10-30T05:16:46.094Z,99.99
2016-10-30T05:17:46.129Z,99.99
2016-10-30T05:18:46.325Z,99.99
2016-10-30T05:19:46.265Z,99.99
2016-10-30T05:20:46.156Z,99.99
2016-10-30T05:21:46.108Z,99.99
2016-10-30T05:22:46.136Z,99.99
2016-10-30T05:23:46.162Z,99.99
2016-10-30T05:24:46.094Z,99.99
2016-10-30T05:25:46.139Z,99.99
2016-10-30T05:26:46.101Z,99.99
2016-10-30T05:27:46.222Z,99.99
2016-10-30T05:28:46.213Z,99.99
2016-10-30T05:29:46.111Z,99.99
2016-10-30T05:30:46.223Z,99.99
2016-10-30T05:31:46.118Z,99.99
2016-10-30T05:32:46.140Z,99.99
2016-10-30T05:33:46.146Z,99.99
2016-10-30T05:34:46.222Z,99.99
2016-10-30T05:35:46.122Z,99.99
2016-10-30T05:36:46.357Z,99.99
2016-10-30T05:37:46.158Z,99.99
2016-10-30T05:38:46.097Z,99.99
2016-10-30T05:39:46.126Z,99.99
2016-10-30T05:40:46.142Z,99.99
2016-10-30T05:41:46.111Z,99.99
2016-10-30T05:42:46.112Z,99.99
2016-10-30T05:43:46.105Z,99.99
2016-10-30T05:44:51.212Z,99.99
2016-10-30T05:45:46.117Z,99.99
2016-10-30T05:46:51.346Z,99.99
2016-10-30T05:47:51.237Z,99.99
2016-10-30T05:48:49.371Z,99.99
2016-10-30T05:49:48.444Z,99.99
2016-10-30T05:50:50.978Z,99.99
2016-10-30T05:51:46.115Z,99.99
2016-10-30T05:52:50.886Z,99.99
2016-10-30T05:53:51.443Z,99.99
2016-10-30T05:54:51.442Z,99.99
2016-10-30T05:55:50.454Z,99.99
2016-10-30T05:56:51.055Z,99.99
2016-10-30T05:57:51.038Z,99.99
2016-10-30T05:58:51.075Z,99.99
2016-10-30T05:59:51.596Z,99.99
2016-10-30T06:00:51.590Z,99.99
2016-10-30T06:01:50.672Z,99.99
2016-10-30T06:02:52.115Z,99.99
2016-10-30T06:03:52.252Z,99.99
2016-10-30T06:04:51.211Z,99.99
2016-10-30T06:05:52.045Z,99.99
2016-10-30T06:06:51.340Z,99.99
2016-10-30T06:07:46.139Z,99.99
2016-10-30T06:08:51.737Z,99.99
2016-10-30T06:09:51.544Z,99.99
2016-10-30T06:10:51.590Z,99.99
2016-10-30T06:11:46.150Z,99.99
2016-10-30T06:12:46.197Z,99.99
2016-10-30T06:13:46.139Z,99.99
2016-10-30T06:14:46.147Z,99.99
2016-10-30T06:15:46.138Z,99.99
2016-10-30T06:16:46.143Z,99.99
2016-10-30T06:17:46.152Z,99.99
2016-10-30T06:18:46.142Z,99.99
2016-10-30T06:19:46.145Z,99.99
2016-10-30T06:20:46.187Z,99.99
2016-10-30T06:21:46.189Z,99.99
2016-10-30T06:22:46.200Z,99.99
2016-10-30T06:23:46.178Z,99.99
2016-10-30T06:24:46.226Z,99.99
2016-10-30T06:25:46.176Z,99.99
2016-10-30T06:26:46.168Z,99.99
2016-10-30T06:27:46.188Z,99.99
2016-10-30T06:28:46.154Z,99.99
2016-10-30T06:29:46.162Z,99.99
2016-10-30T06:30:46.165Z,99.99
2016-10-30T06:31:46.156Z,99.99
2016-10-30T06:32:46.164Z,99.99
2016-10-30T06:33:46.171Z,99.99
2016-10-30T06:34:46.152Z,99.99
2016-10-30T06:35:46.169Z,99.99
2016-10-30T06:36:46.172Z,99.99
2016-10-30T06:37:46.184Z,99.99
2016-10-30T06:38:46.159Z,99.99
2016-10-30T06:39:46.138Z,99.99
2016-10-30T06:40:46.165Z,99.99
2016-10-30T06:41:46.187Z,99.99
2016-10-30T06:42:46.208Z,99.99
2016-10-30T06:43:46.157Z,99.99
2016-10-30T06:44:46.165Z,99.99
2016-10-30T06:45:46.146Z,99.99
2016-10-30T06:46:46.144Z,99.99
2016-10-30T06:47:46.162Z,99.99
2016-10-30T06:48:46.162Z,99.99
2016-10-30T06:49:46.167Z,99.99
2016-10-30T06:50:46.146Z,99.99
2016-10-30T06:51:46.153Z,99.99
2016-10-30T06:52:46.182Z,99.99
2016-10-30T06:53:46.136Z,99.99
2016-10-30T06:54:46.163Z,99.99
2016-10-30T06:55:46.169Z,99.99
2016-10-30T06:56:46.158Z,99.99
2016-10-30T06:57:46.186Z,99.99
2016-10-30T06:58:46.172Z,99.99
2016-10-30T06:59:46.166Z,99.99
2016-10-30T07:00:46.168Z,99.99
2016-10-30T07:01:46.186Z,99.99
2016-10-30T07:02:46.190Z,99.99
2016-10-30T07:03:46.173Z,99.99
2016-10-30T07:04:46.165Z,99.99
2016-10-30T07:05:46.186Z,99.99
2016-10-30T07:06:46.193Z,99.99
2016-10-30T07:07:46.190Z,99.99
2016-10-30T07:08:46.171Z,99.99
2016-10-30T07:09:46.191Z,99.99
2016-10-30T07:10:46.168Z,99.99
2016-10-30T07:11:46.189Z,99.99
2016-10-30T07:12:46.203Z,99.99
2016-10-30T07:13:46.189Z,99.99
2016-10-30T07:14:46.184Z,99.99
2016-10-30T07:15:46.169Z,99.99
2016-10-30T07:16:46.211Z,99.99
2016-10-30T07:17:46.210Z,99.99
2016-10-30T07:18:46.169Z,99.99
2016-10-30T07:19:46.182Z,99.99
2016-10-30T07:20:46.187Z,99.99
2016-10-30T07:21:46.178Z,99.99
2016-10-30T07:22:46.236Z,99.99
2016-10-30T07:23:46.194Z,99.99
2016-10-30T07:24:46.192Z,99.99
2016-10-30T07:25:46.200Z,99.99
2016-10-30T07:26:46.199Z,99.99
2016-10-30T07:27:46.241Z,99.99
2016-10-30T07:28:46.232Z,99.99
2016-10-30T07:29:46.202Z,99.99
2016-10-30T07:30:46.184Z,99.99
2016-10-30T07:31:46.200Z,99.99
2016-10-30T07:32:46.223Z,99.99
2016-10-30T07:33:46.251Z,99.99
2016-10-30T07:34:46.187Z,99.99
2016-10-30T07:35:46.194Z,99.99
2016-10-30T07:36:46.183Z,99.99
2016-10-30T07:37:46.204Z,99.99
2016-10-30T07:38:46.195Z,99.99
2016-10-30T07:39:46.191Z,99.99
2016-10-30T07:40:46.212Z,99.99
2016-10-30T07:41:46.200Z,99.99
2016-10-30T07:42:46.237Z,99.99
2016-10-30T07:43:46.199Z,99.99
2016-10-30T07:44:46.202Z,99.99
2016-10-30T07:45:46.229Z,99.99
2016-10-30T07:46:46.226Z,99.99
2016-10-30T07:47:46.229Z,99.99
2016-10-30T07:48:46.250Z,99.99
2016-10-30T07:49:46.237Z,99.99
2016-10-30T07:50:46.243Z,99.99
2016-10-30T07:51:49.085Z,99.99
2016-10-30T07:52:48.004Z,99.99
2016-10-30T07:53:47.555Z,99.99
2016-10-30T07:54:48.040Z,99.99
2016-10-30T07:55:49.093Z,99.99
2016-10-30T07:56:47.670Z,99.99
2016-10-30T07:57:46.280Z,99.99
2016-10-30T07:58:46.284Z,99.99
2016-10-30T07:59:46.228Z,99.99
2016-10-30T08:00:46.216Z,99.99
2016-10-30T08:01:46.249Z,99.99
2016-10-30T08:02:46.264Z,99.99
2016-10-30T08:03:46.254Z,99.99
2016-10-30T08:04:46.233Z,99.99
2016-10-30T08:05:46.226Z,99.99
2016-10-30T08:06:46.248Z,99.99
2016-10-30T08:07:46.255Z,99.99
2016-10-30T08:08:46.253Z,99.99
2016-10-30T08:09:46.224Z,99.99
2016-10-30T08:10:46.220Z,99.99
2016-10-30T08:11:46.236Z,99.99
2016-10-30T08:12:46.251Z,99.99
2016-10-30T08:13:46.204Z,99.99
2016-10-30T08:14:46.220Z,99.99
2016-10-30T08:15:46.227Z,99.99
2016-10-30T08:16:48.960Z,99.99
2016-10-30T08:17:47.974Z,99.99
2016-10-30T08:18:47.830Z,99.99
2016-10-30T08:19:46.252Z,99.99
2016-10-30T08:20:46.251Z,99.99
2016-10-30T08:21:46.236Z,99.99
2016-10-30T08:22:46.280Z,99.99
2016-10-30T08:23:46.249Z,99.99
2016-10-30T08:24:46.249Z,99.99
2016-10-30T08:25:46.245Z,99.99
2016-10-30T08:26:46.243Z,99.99
2016-10-30T08:27:46.254Z,99.99
2016-10-30T08:28:46.265Z,99.99
2016-10-30T08:29:46.242Z,99.99
2016-10-30T08:30:46.528Z,99.99
2016-10-30T08:31:46.508Z,99.99
2016-10-30T08:32:46.257Z,99.99
2016-10-30T08:33:46.690Z,99.99
2016-10-30T08:34:46.254Z,99.99
2016-10-30T08:35:46.341Z,99.99
2016-10-30T08:36:46.238Z,99.99
2016-10-30T08:37:46.836Z,99.99
2016-10-30T08:38:46.267Z,99.99
2016-10-30T08:39:46.520Z,99.99
2016-10-30T08:40:46.308Z,99.99
2016-10-30T08:41:46.263Z,99.99
2016-10-30T08:42:46.293Z,99.99
2016-10-30T08:43:46.240Z,99.99
2016-10-30T08:44:46.251Z,99.99
2016-10-30T08:45:46.254Z,99.99
2016-10-30T08:46:46.296Z,99.99
2016-10-30T08:47:46.420Z,99.99
2016-10-30T08:48:46.267Z,99.99
2016-10-30T08:49:46.625Z,99.99
2016-10-30T08:50:46.459Z,99.99
2016-10-30T08:51:46.368Z,99.99
2016-10-30T08:52:46.518Z,99.99
2016-10-30T08:53:46.387Z,99.99
2016-10-30T08:54:47.343Z,99.99
2016-10-30T08:55:46.504Z,99.99
2016-10-30T08:56:46.438Z,99.99
2016-10-30T08:57:46.306Z,99.99
2016-10-30T08:58:46.640Z,99.99
2016-10-30T08:59:46.296Z,99.99
2016-10-30T09:00:47.294Z,99.99
2016-10-30T09:01:46.280Z,99.99
2016-10-30T09:02:46.321Z,99.99
2016-10-30T09:03:46.308Z,99.99
2016-10-30T09:04:46.296Z,99.99
2016-10-30T09:05:46.276Z,99.99
2016-10-30T09:06:46.289Z,99.99
2016-10-30T09:07:46.338Z,99.99
2016-10-30T09:08:46.260Z,99.99
2016-10-30T09:09:46.342Z,99.99
2016-10-30T09:10:46.311Z,99.99
2016-10-30T09:11:46.446Z,99.99
2016-10-30T09:12:46.374Z,99.99
2016-10-30T09:13:46.421Z,99.99
2016-10-30T09:14:46.495Z,99.99
2016-10-30T09:15:46.305Z,99.99
2016-10-30T09:16:46.363Z,99.99
2016-10-30T09:17:46.380Z,99.99
2016-10-30T09:18:47.047Z,99.99
2016-10-30T09:19:46.361Z,99.99
2016-10-30T09:20:46.356Z,99.99
2016-10-30T09:21:46.469Z,99.99
2016-10-30T09:22:46.719Z,99.99
2016-10-30T09:23:46.422Z,99.99
2016-10-30T09:24:46.921Z,99.99
2016-10-30T09:25:46.466Z,99.99
2016-10-30T09:26:46.357Z,99.99
2016-10-30T09:27:46.715Z,99.99
2016-10-30T09:28:46.427Z,99.99
2016-10-30T09:29:46.382Z,99.99
2016-10-30T09:30:46.393Z,99.99
2016-10-30T09:31:46.896Z,99.99
2016-10-30T09:32:46.366Z,99.99
2016-10-30T09:33:46.395Z,99.99
2016-10-30T09:34:46.289Z,99.99
2016-10-30T09:35:46.313Z,99.99
2016-10-30T09:36:46.291Z,99.99
2016-10-30T09:37:46.319Z,99.99
2016-10-30T09:38:46.313Z,99.99
2016-10-30T09:39:46.292Z,99.99
2016-10-30T09:40:46.370Z,99.99
2016-10-30T09:41:46.331Z,99.99
2016-10-30T09:42:46.345Z,99.99
2016-10-30T09:43:46.334Z,99.99
2016-10-30T09:44:46.318Z,99.99
2016-10-30T09:45:46.323Z,99.99
2016-10-30T09:46:46.326Z,99.99
2016-10-30T09:47:46.405Z,99.99
2016-10-30T09:48:46.719Z,99.99
2016-10-30T09:49:46.420Z,99.99
2016-10-30T09:50:46.887Z,99.99
2016-10-30T09:51:46.690Z,99.99
2016-10-30T09:52:46.444Z,99.99
2016-10-30T09:53:46.398Z,99.99
2016-10-30T09:54:46.460Z,99.99
2016-10-30T09:55:46.409Z,99.99
2016-10-30T09:56:46.361Z,99.99
2016-10-30T09:57:46.408Z,99.99
2016-10-30T09:58:46.336Z,99.99
2016-10-30T09:59:46.308Z,99.99
2016-10-30T10:00:46.335Z,99.99
2016-10-30T10:01:46.313Z,99.99
2016-10-30T10:02:46.995Z,99.99
2016-10-30T10:03:46.350Z,99.99
2016-10-30T10:04:46.307Z,99.99
2016-10-30T10:05:46.368Z,99.99
2016-10-30T10:06:46.340Z,99.99
2016-10-30T10:07:46.353Z,99.99
2016-10-30T10:08:46.348Z,99.99
2016-10-30T10:09:46.399Z,99.99
2016-10-30T10:10:46.317Z,99.99
2016-10-30T10:11:46.652Z,99.99
2016-10-30T10:12:46.349Z,99.99
2016-10-30T10:13:46.338Z,99.99
2016-10-30T10:14:46.642Z,99.99
2016-10-30T10:15:46.404Z,99.99
2016-10-30T10:16:46.337Z,99.99
2016-10-30T10:17:46.350Z,99.99
2016-10-30T10:18:46.329Z,99.99
2016-10-30T10:19:46.318Z,99.99
2016-10-30T10:20:46.501Z,99.99
2016-10-30T10:21:46.679Z,99.99
2016-10-30T10:22:46.411Z,99.99
2016-10-30T10:23:46.369Z,99.99
2016-10-30T10:24:46.667Z,99.99
2016-10-30T10:25:46.325Z,99.99
2016-10-30T10:26:46.350Z,99.99
2016-10-30T10:27:46.342Z,99.99
2016-10-30T10:28:46.590Z,99.99
2016-10-30T10:29:46.337Z,99.99
2016-10-30T10:30:46.377Z,99.99
2016-10-30T10:31:46.372Z,99.99
2016-10-30T10:32:46.370Z,99.99
2016-10-30T10:33:46.383Z,99.99
2016-10-30T10:34:46.341Z,99.99
2016-10-30T10:35:46.353Z,99.99
2016-10-30T10:36:46.343Z,99.99
2016-10-30T10:37:47.076Z,99.99
2016-10-30T10:38:46.356Z,99.99
2016-10-30T10:39:46.419Z,99.99
2016-10-30T10:40:46.326Z,99.99
2016-10-30T10:41:46.331Z,99.99
2016-10-30T10:42:46.707Z,99.99
2016-10-30T10:43:46.347Z,99.99
2016-10-30T10:44:46.511Z,99.99
2016-10-30T10:45:46.597Z,99.99
2016-10-30T10:46:46.569Z,99.99
2016-10-30T10:47:46.363Z,99.99
2016-10-30T10:48:46.357Z,99.99
2016-10-30T10:49:46.349Z,99.99
2016-10-30T10:50:46.441Z,99.99
2016-10-30T10:51:46.680Z,99.99
2016-10-30T10:52:46.664Z,99.99
2016-10-30T10:53:46.743Z,99.99
2016-10-30T10:54:46.544Z,99.99
2016-10-30T10:55:46.675Z,99.99
2016-10-30T10:56:46.451Z,99.99
2016-10-30T10:57:46.406Z,99.99
2016-10-30T10:58:46.480Z,99.99
2016-10-30T10:59:46.399Z,99.99
2016-10-30T11:00:46.493Z,99.99
2016-10-30T11:01:46.443Z,99.99
2016-10-30T11:02:46.588Z,99.99
2016-10-30T11:03:46.379Z,99.99
2016-10-30T11:04:46.418Z,99.99
2016-10-30T11:05:46.373Z,99.99
2016-10-30T11:06:46.411Z,99.99
2016-10-30T11:07:46.379Z,99.99
2016-10-30T11:08:46.403Z,99.99
2016-10-30T11:09:46.368Z,99.99
2016-10-30T11:10:46.360Z,99.99
2016-10-30T11:11:46.373Z,99.99
2016-10-30T11:12:46.401Z,99.99
2016-10-30T11:13:46.423Z,99.99
2016-10-30T11:14:46.414Z,99.99
2016-10-30T11:15:46.388Z,99.99
2016-10-30T11:16:46.362Z,99.99
2016-10-30T11:17:46.398Z,99.99
2016-10-30T11:18:46.381Z,99.99
2016-10-30T11:19:46.407Z,99.99
2016-10-30T11:20:46.725Z,99.99
2016-10-30T11:21:46.426Z,99.99
2016-10-30T11:22:46.407Z,99.99
2016-10-30T11:23:46.398Z,99.99
2016-10-30T11:24:46.421Z,99.99
2016-10-30T11:25:46.451Z,99.99
2016-10-30T11:26:46.384Z,99.99
2016-10-30T11:27:46.419Z,99.99
2016-10-30T11:28:46.678Z,99.99
2016-10-30T11:29:46.665Z,99.99
2016-10-30T11:30:46.484Z,99.99
2016-10-30T11:31:46.682Z,99.99
2016-10-30T11:32:46.478Z,99.99
2016-10-30T11:33:46.397Z,99.99
2016-10-30T11:34:46.427Z,99.99
2016-10-30T11:35:46.391Z,99.99
2016-10-30T11:36:46.412Z,99.99
2016-10-30T11:37:46.457Z,99.99
2016-10-30T11:38:46.425Z,99.99
2016-10-30T11:39:46.424Z,99.99
2016-10-30T11:40:46.429Z,99.99
2016-10-30T11:41:46.811Z,99.99
2016-10-30T11:42:46.463Z,99.99
2016-10-30T11:43:46.427Z,99.99
2016-10-30T11:44:46.424Z,99.99
2016-10-30T11:45:46.476Z,99.99
2016-10-30T11:46:46.421Z,99.99
2016-10-30T11:47:46.453Z,99.99
2016-10-30T11:48:46.424Z,99.99
2016-10-30T11:49:46.498Z,99.99
2016-10-30T11:50:46.431Z,99.99
2016-10-30T11:51:46.441Z,99.99
2016-10-30T11:52:46.478Z,99.99
2016-10-30T11:53:46.450Z,99.99
2016-10-30T11:54:46.475Z,99.99
2016-10-30T11:55:47.904Z,99.99
2016-10-30T11:56:46.421Z,99.99
2016-10-30T11:57:46.443Z,99.99
2016-10-30T11:58:46.414Z,99.99
2016-10-30T11:59:46.443Z,99.99
2016-10-30T12:00:46.433Z,99.99
2016-10-30T12:01:46.449Z,99.99
2016-10-30T12:02:46.855Z,99.99
2016-10-30T12:03:46.663Z,99.99
2016-10-30T12:04:46.680Z,99.99
2016-10-30T12:05:48.244Z,99.99
2016-10-30T12:06:46.458Z,99.99
2016-10-30T12:07:46.493Z,99.99
2016-10-30T12:08:46.599Z,99.99
2016-10-30T12:09:47.580Z,99.99
2016-10-30T12:10:46.418Z,99.1
2016-10-30T12:11:46.454Z,98.72
2016-10-30T12:12:46.434Z,98.05
2016-10-30T12:13:46.442Z,99.19
2016-10-30T12:14:46.609Z,98.76
2016-10-30T12:15:46.629Z,96.61
2016-10-30T12:16:46.488Z,95.07
2016-10-30T12:17:46.446Z,94.84
2016-10-30T12:18:46.465Z,95.22
2016-10-30T12:19:46.449Z,95.7
2016-10-30T12:20:46.443Z,96.84
2016-10-30T12:21:46.465Z,97.52
2016-10-30T12:22:46.447Z,98.1
2016-10-30T12:23:47.925Z,98.86
2016-10-30T12:24:46.533Z,99.15
2016-10-30T12:25:46.545Z,99.15
2016-10-30T12:26:46.578Z,99.99
2016-10-30T12:27:46.484Z,99.24
2016-10-30T12:28:46.479Z,97.9
2016-10-30T12:29:46.497Z,98.1
2016-10-30T12:30:46.945Z,97.52
2016-10-30T12:31:46.530Z,97.71
2016-10-30T12:32:46.472Z,97.33
2016-10-30T12:33:46.449Z,96.66
2016-10-30T12:34:46.461Z,96.75
2016-10-30T12:35:46.734Z,97.42
2016-10-30T12:36:46.653Z,98.38
2016-10-30T12:37:46.466Z,98.67
2016-10-30T12:38:46.432Z,98.76
2016-10-30T12:39:46.958Z,98.96
2016-10-30T12:40:46.869Z,99.34
2016-10-30T12:41:46.450Z,99.43
2016-10-30T12:42:46.485Z,99.24
2016-10-30T12:43:46.454Z,99.99
2016-10-30T12:44:46.606Z,99.99
2016-10-30T12:45:46.530Z,99.99
2016-10-30T12:46:46.643Z,99.99
2016-10-30T12:47:46.538Z,99.99
2016-10-30T12:48:46.460Z,99.99
2016-10-30T12:49:47.134Z,99.99
2016-10-30T12:50:46.472Z,99.99
2016-10-30T12:51:46.486Z,99.99
2016-10-30T12:52:46.494Z,99.99